Time;durP1;ratioP1;P1;durP2;ratioP2;P2;SDS_P1;SDS_P2;PMS_P1;PMS_P2;Temp;Humidity;BMP_temperature;BMP_pressure;BME280_temperature;BME280_humidity;BME280_pressure;Samples;Min_cycle;Max_cycle;Signal;HPM_P1;HPM_P2
2021/09/22 00:00:57;;;;;;;1.50;1.10;;;12.10;86.30;;;;;;5051420;28;20377;-62
2021/09/22 00:03:22;;;;;;;1.40;0.80;;;12.10;86.60;;;;;;5053236;28;20499;-61
2021/09/22 00:05:49;;;;;;;1.00;0.73;;;12.10;86.70;;;;;;5050875;28;20059;-62
2021/09/22 00:08:14;;;;;;;1.45;0.95;;;12.10;86.90;;;;;;5054028;28;20025;-62
2021/09/22 00:10:40;;;;;;;1.58;0.90;;;12.10;87.00;;;;;;5059222;28;20036;-62
2021/09/22 00:13:05;;;;;;;1.17;0.80;;;12.00;87.00;;;;;;5052316;28;20417;-62
2021/09/22 00:15:31;;;;;;;2.30;1.65;;;12.00;87.10;;;;;;5046880;28;20066;-62
2021/09/22 00:17:56;;;;;;;1.60;1.05;;;12.00;87.10;;;;;;5059914;28;20372;-62
2021/09/22 00:20:24;;;;;;;1.63;0.80;;;12.00;87.20;;;;;;5053756;28;20021;-62
2021/09/22 00:22:58;;;;;;;0.98;0.68;;;12.00;87.40;;;;;;5046427;28;20017;-62
2021/09/22 00:25:25;;;;;;;1.30;0.80;;;11.90;87.50;;;;;;5051643;28;20670;-62
2021/09/22 00:27:51;;;;;;;4.22;2.42;;;11.90;87.60;;;;;;5053754;28;20400;-62
2021/09/22 00:30:17;;;;;;;2.33;1.50;;;11.90;87.80;;;;;;5051531;28;20100;-62
2021/09/22 00:32:46;;;;;;;2.40;1.55;;;11.90;87.90;;;;;;5051039;28;20017;-62
2021/09/22 00:35:12;;;;;;;3.70;1.70;;;11.80;87.80;;;;;;5050948;28;20014;-62
2021/09/22 00:37:38;;;;;;;2.40;1.77;;;11.80;87.90;;;;;;5039733;28;20052;-62
2021/09/22 00:40:05;;;;;;;2.47;1.63;;;11.80;88.00;;;;;;5058088;28;20097;-62
2021/09/22 00:42:30;;;;;;;3.17;2.22;;;11.80;88.10;;;;;;5051831;28;20531;-62
2021/09/22 00:44:58;;;;;;;3.00;2.10;;;11.80;88.30;;;;;;5054739;28;20024;-62
2021/09/22 00:47:25;;;;;;;2.58;1.92;;;11.70;88.20;;;;;;5052476;28;20085;-62
2021/09/22 00:49:51;;;;;;;2.38;1.85;;;11.70;88.30;;;;;;5052298;28;20031;-62
2021/09/22 00:52:18;;;;;;;2.75;1.50;;;11.70;88.40;;;;;;5031877;28;20018;-62
2021/09/22 00:54:43;;;;;;;2.17;1.33;;;11.70;88.50;;;;;;5052211;28;20144;-62
2021/09/22 00:57:14;;;;;;;2.67;1.60;;;11.60;88.60;;;;;;5049334;28;20443;-62
2021/09/22 00:59:39;;;;;;;2.10;1.65;;;11.60;88.80;;;;;;5054994;28;20387;-62
2021/09/22 01:02:06;;;;;;;1.90;0.95;;;11.60;88.90;;;;;;5061986;28;20943;-62
2021/09/22 01:04:33;;;;;;;1.13;0.80;;;11.50;89.10;;;;;;5049358;28;20425;-61
2021/09/22 01:06:59;;;;;;;1.42;1.15;;;11.50;89.20;;;;;;5058182;28;20029;-62
2021/09/22 01:09:26;;;;;;;3.72;0.90;;;11.40;89.30;;;;;;5054698;28;20045;-62
2021/09/22 01:11:51;;;;;;;12.82;1.70;;;11.40;89.50;;;;;;5054854;28;20017;-62
2021/09/22 01:14:24;;;;;;;4.22;1.58;;;11.30;89.80;;;;;;5052057;28;20025;-62
2021/09/22 01:16:50;;;;;;;2.90;2.03;;;11.20;90.00;;;;;;5054894;28;20021;-62
2021/09/22 01:19:17;;;;;;;11.13;1.80;;;11.20;90.10;;;;;;5052325;28;20025;-62
2021/09/22 01:21:47;;;;;;;2.67;1.90;;;11.20;90.20;;;;;;5054882;28;20025;-61
2021/09/22 01:24:13;;;;;;;4.10;2.50;;;11.20;90.30;;;;;;5057541;28;20476;-61
2021/09/22 01:26:39;;;;;;;3.42;2.67;;;11.20;90.30;;;;;;5053655;28;20036;-61
2021/09/22 01:29:05;;;;;;;4.03;2.70;;;11.20;90.30;;;;;;5044192;28;20021;-62
2021/09/22 01:31:36;;;;;;;4.25;3.05;;;11.20;90.30;;;;;;5036570;28;20128;-62
2021/09/22 01:34:03;;;;;;;7.53;3.92;;;11.20;90.40;;;;;;5054739;28;20099;-61
2021/09/22 01:36:29;;;;;;;8.40;3.78;;;11.20;90.40;;;;;;5051520;28;20094;-61
2021/09/22 01:38:55;;;;;;;5.68;3.60;;;11.20;90.40;;;;;;5050609;28;20052;-61
2021/09/22 01:41:21;;;;;;;4.90;3.97;;;11.20;90.40;;;;;;5036506;28;20078;-62
2021/09/22 01:43:46;;;;;;;5.47;4.00;;;11.20;90.40;;;;;;5051440;28;20118;-62
2021/09/22 01:46:12;;;;;;;3.72;2.85;;;11.10;90.50;;;;;;5048906;28;20520;-62
2021/09/22 01:48:39;;;;;;;3.17;2.28;;;11.10;90.60;;;;;;5051650;28;20095;-62
2021/09/22 01:51:07;;;;;;;5.88;4.32;;;11.00;90.70;;;;;;5049010;28;20051;-61
2021/09/22 01:53:33;;;;;;;7.25;5.82;;;11.00;90.80;;;;;;5051111;28;20051;-62
2021/09/22 01:56:01;;;;;;;7.35;5.85;;;11.10;90.80;;;;;;5051640;28;20022;-61
2021/09/22 01:58:28;;;;;;;9.77;7.15;;;11.10;90.80;;;;;;5051019;28;20059;-61
2021/09/22 02:00:56;;;;;;;9.85;7.15;;;11.10;90.90;;;;;;5051489;28;20021;-62
2021/09/22 02:03:21;;;;;;;9.40;7.53;;;11.10;90.90;;;;;;5053748;28;20051;-61
2021/09/22 02:05:47;;;;;;;8.23;6.00;;;11.10;90.90;;;;;;5051152;28;20124;-62
2021/09/22 02:08:12;;;;;;;6.47;4.88;;;11.10;90.90;;;;;;5049679;28;20021;-62
2021/09/22 02:10:39;;;;;;;6.03;4.40;;;11.00;90.90;;;;;;5054147;28;20025;-62
2021/09/22 02:13:05;;;;;;;6.38;4.75;;;11.00;91.00;;;;;;5051047;28;20028;-62
2021/09/22 02:15:31;;;;;;;5.60;4.38;;;11.00;91.00;;;;;;5050873;28;20066;-61
2021/09/22 02:17:56;;;;;;;7.28;4.30;;;11.00;91.10;;;;;;5036262;28;20021;-61
2021/09/22 02:20:22;;;;;;;5.28;3.97;;;10.90;91.10;;;;;;5036132;28;20476;-61
2021/09/22 02:22:48;;;;;;;4.75;3.75;;;11.00;91.20;;;;;;5050724;28;20029;-62
2021/09/22 02:25:14;;;;;;;4.82;3.83;;;10.90;91.20;;;;;;5051214;28;20029;-62
2021/09/22 02:27:40;;;;;;;4.18;3.45;;;10.90;91.20;;;;;;5048083;28;20485;-62
2021/09/22 02:30:08;;;;;;;4.85;3.28;;;10.90;91.30;;;;;;5033453;28;20052;-61
2021/09/22 02:32:34;;;;;;;5.40;2.13;;;10.90;91.30;;;;;;5059364;28;20021;-61
2021/09/22 02:34:59;;;;;;;11.15;1.85;;;10.80;91.30;;;;;;5045649;28;20067;-62
2021/09/22 02:37:25;;;;;;;2.78;1.30;;;10.80;91.40;;;;;;5053628;28;20021;-62
2021/09/22 02:39:52;;;;;;;2.90;2.10;;;10.70;91.40;;;;;;5035832;28;20434;-62
2021/09/22 02:42:17;;;;;;;6.05;1.20;;;10.70;91.40;;;;;;5053632;28;20021;-61
2021/09/22 02:44:43;;;;;;;2.72;1.52;;;10.70;91.50;;;;;;5035729;28;20033;-61
2021/09/22 02:47:09;;;;;;;2.15;1.42;;;10.60;91.50;;;;;;5053533;28;20103;-61
2021/09/22 02:49:34;;;;;;;7.28;2.92;;;10.60;91.60;;;;;;5050770;28;20362;-61
2021/09/22 02:52:00;;;;;;;5.03;3.13;;;10.50;91.60;;;;;;5049385;28;20560;-62
2021/09/22 02:54:25;;;;;;;12.95;2.70;;;10.50;91.80;;;;;;5053285;28;20131;-62
2021/09/22 02:56:51;;;;;;;4.70;3.53;;;10.40;91.80;;;;;;5050514;28;20076;-62
2021/09/22 02:59:16;;;;;;;6.38;4.10;;;10.40;91.90;;;;;;5053538;28;20048;-62
2021/09/22 03:01:42;;;;;;;6.15;4.70;;;10.40;91.90;;;;;;5053666;28;20033;-61
2021/09/22 03:04:07;;;;;;;5.68;3.97;;;10.50;91.90;;;;;;5047668;28;20443;-61
2021/09/22 03:06:33;;;;;;;6.60;4.43;;;10.50;91.90;;;;;;5050572;28;20416;-61
2021/09/22 03:08:58;;;;;;;7.25;4.53;;;10.50;91.90;;;;;;5032832;28;20426;-62
2021/09/22 03:11:24;;;;;;;7.75;5.82;;;10.50;91.90;;;;;;5048346;28;20029;-62
2021/09/22 03:13:49;;;;;;;6.53;3.58;;;10.50;91.90;;;;;;5049836;28;20024;-62
2021/09/22 03:16:15;;;;;;;4.10;3.30;;;10.50;91.90;;;;;;5056828;28;20018;-62
2021/09/22 03:18:40;;;;;;;29.67;3.78;;;10.50;91.90;;;;;;5057087;28;20025;-61
2021/09/22 03:21:06;;;;;;;21.40;2.50;;;10.50;92.00;;;;;;5054361;28;20621;-61
2021/09/22 03:23:32;;;;;;;14.55;2.33;;;10.40;92.00;;;;;;5039168;28;20055;-62
2021/09/22 03:25:58;;;;;;;2.65;2.08;;;10.40;92.10;;;;;;5054410;28;20025;-61
2021/09/22 03:28:24;;;;;;;3.90;2.90;;;10.30;92.10;;;;;;5054045;28;20029;-62
2021/09/22 03:30:50;;;;;;;5.30;3.90;;;10.30;92.20;;;;;;5056673;28;20027;-62
2021/09/22 03:33:17;;;;;;;7.88;5.18;;;10.30;92.30;;;;;;5049097;28;20017;-61
2021/09/22 03:35:43;;;;;;;8.90;6.03;;;10.30;92.30;;;;;;5049680;28;20066;-61
2021/09/22 03:38:09;;;;;;;6.15;4.03;;;10.30;92.30;;;;;;5053356;28;20036;-61
2021/09/22 03:40:35;;;;;;;5.30;4.43;;;10.30;92.20;;;;;;5052266;28;20025;-62
2021/09/22 03:43:01;;;;;;;8.85;4.13;;;10.30;92.30;;;;;;5058814;28;20070;-61
2021/09/22 03:45:27;;;;;;;5.03;3.92;;;10.30;92.40;;;;;;5046232;28;20645;-61
2021/09/22 03:47:52;;;;;;;5.72;4.35;;;10.20;92.30;;;;;;5051115;28;20023;-62
2021/09/22 03:50:18;;;;;;;11.93;8.02;;;10.20;92.40;;;;;;5052982;28;20021;-61
2021/09/22 03:52:44;;;;;;;12.85;8.70;;;10.20;92.60;;;;;;5055366;28;20029;-62
2021/09/22 03:55:10;;;;;;;12.20;8.68;;;10.10;92.60;;;;;;5048896;28;20028;-62
2021/09/22 03:57:35;;;;;;;10.68;7.78;;;10.10;92.60;;;;;;5056753;28;20021;-61
2021/09/22 04:00:01;;;;;;;13.10;8.80;;;10.20;92.70;;;;;;5041887;28;20017;-61
2021/09/22 04:02:27;;;;;;;11.38;8.32;;;10.10;92.60;;;;;;5053149;28;20029;-61
2021/09/22 04:04:53;;;;;;;10.93;7.72;;;10.20;92.60;;;;;;5051963;28;20506;-62
2021/09/22 04:07:18;;;;;;;8.68;6.63;;;10.20;92.60;;;;;;5055197;28;20037;-62
2021/09/22 04:09:44;;;;;;;11.45;7.63;;;10.20;92.60;;;;;;5056510;28;20020;-61
2021/09/22 04:12:09;;;;;;;8.30;6.45;;;10.20;92.70;;;;;;5047664;28;20025;-62
2021/09/22 04:14:35;;;;;;;9.13;6.22;;;10.20;92.70;;;;;;5046566;28;20124;-61
2021/09/22 04:17:00;;;;;;;12.30;7.55;;;10.20;92.70;;;;;;5049416;28;20021;-62
2021/09/22 04:19:26;;;;;;;9.18;6.38;;;10.10;92.70;;;;;;5052378;28;20033;-61
2021/09/22 04:21:51;;;;;;;7.40;5.32;;;10.10;92.70;;;;;;5052244;28;20096;-61
2021/09/22 04:24:17;;;;;;;6.50;4.82;;;10.10;92.80;;;;;;5048219;28;20017;-61
2021/09/22 04:26:43;;;;;;;5.03;3.67;;;10.10;92.80;;;;;;5049719;28;20075;-62
2021/09/22 04:29:08;;;;;;;5.72;3.83;;;10.00;92.90;;;;;;5055643;28;20040;-61
2021/09/22 04:31:34;;;;;;;16.98;4.32;;;10.00;92.90;;;;;;5057438;28;20503;-62
2021/09/22 04:33:59;;;;;;;8.40;4.60;;;9.90;93.00;;;;;;5055773;28;20073;-61
2021/09/22 04:36:25;;;;;;;6.90;4.03;;;9.80;93.00;;;;;;5048286;28;20100;-61
2021/09/22 04:38:51;;;;;;;4.20;3.28;;;9.80;93.10;;;;;;5051703;28;20466;-62
2021/09/22 04:41:17;;;;;;;5.75;3.88;;;9.70;93.20;;;;;;5037119;28;20044;-62
2021/09/22 04:43:43;;;;;;;9.35;5.47;;;9.70;93.30;;;;;;5051256;28;20025;-61
2021/09/22 04:46:09;;;;;;;8.73;6.30;;;9.70;93.30;;;;;;5049066;28;20075;-61
2021/09/22 04:48:38;;;;;;;10.30;7.25;;;9.80;93.30;;;;;;5050952;28;20088;-62
2021/09/22 04:51:03;;;;;;;13.05;8.23;;;9.80;93.20;;;;;;5057469;28;20029;-61
2021/09/22 04:53:29;;;;;;;12.52;8.32;;;9.80;93.20;;;;;;5047999;28;20049;-61
2021/09/22 04:55:54;;;;;;;13.50;8.32;;;9.80;93.20;;;;;;5049033;28;20017;-61
2021/09/22 04:58:20;;;;;;;11.02;7.65;;;9.80;93.20;;;;;;5054133;28;20472;-61
2021/09/22 05:00:46;;;;;;;12.65;8.88;;;9.80;93.20;;;;;;5063087;28;20385;-62
2021/09/22 05:03:11;;;;;;;9.88;7.85;;;9.80;93.20;;;;;;5036742;28;20020;-61
2021/09/22 05:05:37;;;;;;;11.15;8.27;;;9.90;93.20;;;;;;5055593;28;20036;-61
2021/09/22 05:08:02;;;;;;;11.13;7.82;;;9.90;93.10;;;;;;5039928;28;20029;-61
2021/09/22 05:10:28;;;;;;;9.13;7.28;;;9.90;93.10;;;;;;5046568;28;20511;-61
2021/09/22 05:12:54;;;;;;;11.77;7.45;;;9.90;93.10;;;;;;5044620;28;20389;-62
2021/09/22 05:15:19;;;;;;;9.98;7.43;;;9.90;93.10;;;;;;5040260;28;20033;-61
2021/09/22 05:17:45;;;;;;;10.35;7.55;;;9.80;93.10;;;;;;5054418;28;20028;-61
2021/09/22 05:20:11;;;;;;;9.13;6.68;;;9.80;93.10;;;;;;5045871;28;20024;-61
2021/09/22 05:22:37;;;;;;;9.55;6.63;;;9.80;93.10;;;;;;5054058;28;20032;-61
2021/09/22 05:25:04;;;;;;;9.40;6.57;;;9.80;93.10;;;;;;5056041;28;20056;-61
2021/09/22 05:27:30;;;;;;;10.48;7.30;;;9.80;93.10;;;;;;5051843;28;20029;-62
2021/09/22 05:29:55;;;;;;;10.68;7.55;;;9.80;93.20;;;;;;5053533;28;20021;-61
2021/09/22 05:32:21;;;;;;;15.40;8.15;;;9.80;93.20;;;;;;5049791;28;20025;-61
2021/09/22 05:34:47;;;;;;;14.15;7.70;;;9.80;93.20;;;;;;5033802;28;20025;-61
2021/09/22 05:37:12;;;;;;;60.88;8.15;;;9.80;93.20;;;;;;5050385;28;20526;-62
2021/09/22 05:39:39;;;;;;;8.68;7.05;;;9.70;93.30;;;;;;5061785;28;20054;-61
2021/09/22 05:42:05;;;;;;;9.98;6.40;;;9.70;93.40;;;;;;5043540;28;20037;-61
2021/09/22 05:44:30;;;;;;;9.82;6.70;;;9.70;93.40;;;;;;5041796;28;20021;-61
2021/09/22 05:46:56;;;;;;;8.45;6.18;;;9.60;93.70;;;;;;5041394;28;20111;-61
2021/09/22 05:49:21;;;;;;;9.35;6.65;;;9.60;93.40;;;;;;5035254;28;20178;-61
2021/09/22 05:51:47;;;;;;;8.27;6.30;;;9.70;93.50;;;;;;5046373;28;20025;-61
2021/09/22 05:54:13;;;;;;;9.55;6.60;;;9.70;93.50;;;;;;5048816;28;20037;-61
2021/09/22 05:56:39;;;;;;;7.55;5.25;;;9.70;93.50;;;;;;5047277;28;20100;-61
2021/09/22 05:59:05;;;;;;;7.35;5.15;;;9.70;93.50;;;;;;5049235;28;20472;-61
2021/09/22 06:01:30;;;;;;;8.18;5.32;;;9.70;93.50;;;;;;5050719;28;20017;-61
2021/09/22 06:03:56;;;;;;;8.25;6.57;;;9.70;93.50;;;;;;5044288;28;20433;-61
2021/09/22 06:06:22;;;;;;;6.72;5.18;;;9.70;93.50;;;;;;5040702;28;20090;-61
2021/09/22 06:08:47;;;;;;;7.35;5.60;;;9.70;93.50;;;;;;5041460;28;20477;-61
2021/09/22 06:11:13;;;;;;;6.50;4.70;;;9.70;93.50;;;;;;5052151;28;20115;-61
2021/09/22 06:13:38;;;;;;;7.13;4.82;;;9.70;93.50;;;;;;5045460;28;20021;-61
2021/09/22 06:16:04;;;;;;;6.35;4.85;;;9.80;93.60;;;;;;5045868;28;20044;-61
2021/09/22 06:18:30;;;;;;;5.40;4.30;;;9.80;93.60;;;;;;5052114;28;20029;-61
2021/09/22 06:20:55;;;;;;;7.55;5.68;;;9.80;93.60;;;;;;5051393;28;20021;-61
2021/09/22 06:23:21;;;;;;;13.65;9.13;;;9.80;93.70;;;;;;5041089;28;20029;-61
2021/09/22 06:25:46;;;;;;;14.18;10.50;;;9.70;93.90;;;;;;5046044;28;20366;-61
2021/09/22 06:28:12;;;;;;;16.95;11.52;;;9.70;94.20;;;;;;5032722;28;20053;-61
2021/09/22 06:30:38;;;;;;;16.33;12.30;;;9.60;94.40;;;;;;5033181;28;20113;-61
2021/09/22 06:33:03;;;;;;;22.00;15.00;;;9.60;94.60;;;;;;5044541;28;20041;-61
2021/09/22 06:35:29;;;;;;;18.77;13.18;;;9.60;94.80;;;;;;5032477;28;20032;-61
2021/09/22 06:37:54;;;;;;;19.48;13.30;;;9.70;94.90;;;;;;5050696;28;20032;-62
2021/09/22 06:40:22;;;;;;;20.52;14.10;;;9.70;95.00;;;;;;5047073;28;20112;-62
2021/09/22 06:42:48;;;;;;;20.33;14.68;;;9.80;95.20;;;;;;5037067;28;20025;-62
2021/09/22 06:45:14;;;;;;;23.35;16.23;;;9.80;95.40;;;;;;5051881;28;20017;-62
2021/09/22 06:47:40;;;;;;;23.83;16.38;;;9.80;95.50;;;;;;5034256;28;20815;-61
2021/09/22 06:50:07;;;;;;;25.45;17.65;;;9.90;95.60;;;;;;5033158;28;20029;-61
2021/09/22 06:52:32;;;;;;;29.15;21.08;;;9.90;95.80;;;;;;5054951;28;20020;-61
2021/09/22 06:54:58;;;;;;;28.60;20.77;;;10.00;96.30;;;;;;5037017;28;20037;-62
2021/09/22 06:57:24;;;;;;;31.85;21.15;;;10.00;96.60;;;;;;5054838;28;20024;-62
2021/09/22 06:59:50;;;;;;;28.15;19.70;;;10.10;96.80;;;;;;5055152;28;20021;-62
2021/09/22 07:02:16;;;;;;;26.25;19.75;;;10.20;97.10;;;;;;5055589;28;20500;-62
2021/09/22 07:04:41;;;;;;;26.83;19.73;;;10.30;97.40;;;;;;5035148;28;20033;-61
2021/09/22 07:07:07;;;;;;;28.10;19.77;;;10.30;97.40;;;;;;5035754;28;20025;-61
2021/09/22 07:09:32;;;;;;;30.27;21.27;;;10.40;97.50;;;;;;5039302;28;20060;-62
2021/09/22 07:11:58;;;;;;;33.95;22.90;;;10.50;97.60;;;;;;5054579;28;20033;-62
2021/09/22 07:14:23;;;;;;;34.83;23.02;;;10.60;97.90;;;;;;5041819;28;20033;-62
2021/09/22 07:16:49;;;;;;;32.92;23.65;;;10.70;98.10;;;;;;5035099;28;20037;-62
2021/09/22 07:19:14;;;;;;;38.15;26.10;;;10.70;98.30;;;;;;5035830;28;20033;-61
2021/09/22 07:21:40;;;;;;;33.10;23.48;;;10.80;98.60;;;;;;5037614;28;20025;-62
2021/09/22 07:24:06;;;;;;;36.42;25.02;;;10.90;98.70;;;;;;5024687;28;20698;-62
2021/09/22 07:26:31;;;;;;;35.97;24.90;;;10.90;98.80;;;;;;5029651;28;20017;-62
2021/09/22 07:28:57;;;;;;;32.53;23.45;;;11.10;99.00;;;;;;5047314;28;20025;-62
2021/09/22 07:31:22;;;;;;;34.28;24.45;;;11.10;99.10;;;;;;5041591;28;20453;-63
2021/09/22 07:33:48;;;;;;;34.97;23.83;;;11.20;99.20;;;;;;5040247;28;20508;-62
2021/09/22 07:36:13;;;;;;;28.92;20.63;;;11.30;99.10;;;;;;5019973;28;20063;-62
2021/09/22 07:38:39;;;;;;;36.03;22.60;;;11.30;99.10;;;;;;5038729;28;20417;-62
2021/09/22 07:41:05;;;;;;;35.08;23.55;;;11.50;99.10;;;;;;5035142;28;20057;-62
2021/09/22 07:43:31;;;;;;;29.38;20.48;;;11.50;99.00;;;;;;5034954;28;20037;-62
2021/09/22 07:45:57;;;;;;;33.75;21.83;;;11.60;99.00;;;;;;5048731;28;20022;-62
2021/09/22 07:48:22;;;;;;;33.63;23.08;;;11.70;98.90;;;;;;5046566;28;20037;-62
2021/09/22 07:50:48;;;;;;;30.42;20.98;;;11.70;98.90;;;;;;5040359;28;20489;-62
2021/09/22 07:53:14;;;;;;;30.80;22.98;;;11.80;98.80;;;;;;5052352;28;20194;-62
2021/09/22 07:55:40;;;;;;;26.15;18.40;;;11.90;98.80;;;;;;5032138;28;20755;-62
2021/09/22 07:58:05;;;;;;;26.02;17.55;;;12.00;98.70;;;;;;5018424;28;20022;-62
2021/09/22 08:00:31;;;;;;;24.70;15.50;;;12.10;98.50;;;;;;5014499;28;20026;-62
2021/09/22 08:02:58;;;;;;;31.58;21.63;;;12.20;98.40;;;;;;5028450;28;20021;-62
2021/09/22 08:05:25;;;;;;;24.48;17.77;;;12.30;98.30;;;;;;5014939;28;20470;-63
2021/09/22 08:07:51;;;;;;;23.70;18.08;;;12.40;98.10;;;;;;5025914;28;20419;-62
2021/09/22 08:10:17;;;;;;;28.27;19.83;;;12.50;98.00;;;;;;5015368;28;20081;-63
2021/09/22 08:12:44;;;;;;;28.08;18.95;;;12.60;97.90;;;;;;5017013;28;20498;-62
2021/09/22 08:15:10;;;;;;;29.70;20.77;;;12.70;97.80;;;;;;5023853;28;20037;-62
2021/09/22 08:17:36;;;;;;;24.75;18.45;;;12.80;97.70;;;;;;5013452;28;20018;-63
2021/09/22 08:20:03;;;;;;;22.20;15.50;;;12.90;97.60;;;;;;5020062;28;20021;-63
2021/09/22 08:22:29;;;;;;;25.90;17.65;;;13.00;97.50;;;;;;5034275;28;20542;-62
2021/09/22 08:24:54;;;;;;;25.75;18.05;;;13.10;97.40;;;;;;5017442;28;20113;-63
2021/09/22 08:27:20;;;;;;;23.65;17.52;;;13.20;97.30;;;;;;5025221;28;20057;-62
2021/09/22 08:29:45;;;;;;;20.98;15.65;;;13.30;97.20;;;;;;5020373;28;20043;-63
2021/09/22 08:32:11;;;;;;;25.77;18.15;;;13.40;97.00;;;;;;5025454;28;20437;-63
2021/09/22 08:34:37;;;;;;;20.35;14.40;;;13.50;96.90;;;;;;5013494;28;20034;-62
2021/09/22 08:37:02;;;;;;;25.20;18.90;;;13.60;96.70;;;;;;5015618;28;20018;-62
2021/09/22 08:39:32;;;;;;;24.70;18.55;;;13.60;96.50;;;;;;5016148;28;20551;-62
2021/09/22 08:41:58;;;;;;;24.98;17.00;;;13.70;96.40;;;;;;5031047;28;20021;-62
2021/09/22 08:44:24;;;;;;;27.00;19.13;;;13.90;96.30;;;;;;5020999;28;20067;-63
2021/09/22 08:46:49;;;;;;;24.52;18.00;;;14.00;96.10;;;;;;5033928;28;20056;-62
2021/09/22 08:49:15;;;;;;;26.55;18.83;;;14.10;96.00;;;;;;5019687;28;20021;-63
2021/09/22 08:51:42;;;;;;;27.90;19.95;;;14.20;95.90;;;;;;5034101;28;20060;-62
2021/09/22 08:54:08;;;;;;;27.05;19.65;;;14.30;95.80;;;;;;5019159;28;20041;-62
2021/09/22 08:56:36;;;;;;;24.23;19.50;;;14.50;95.60;;;;;;5042454;28;20112;-63
2021/09/22 08:59:03;;;;;;;22.38;15.75;;;14.60;95.60;;;;;;5052073;28;20021;-62
2021/09/22 09:01:29;;;;;;;20.30;15.30;;;14.70;95.30;;;;;;5033683;28;20067;-62
2021/09/22 09:03:54;;;;;;;20.20;14.85;;;14.90;95.00;;;;;;5039971;28;20115;-62
2021/09/22 09:06:34;;;;;;;18.73;14.73;;;15.00;94.30;;;;;;5042401;28;20492;-63
2021/09/22 09:09:01;;;;;;;20.23;14.32;;;15.20;94.00;;;;;;5033480;28;20021;-62
2021/09/22 09:11:28;;;;;;;20.90;16.35;;;15.30;93.00;;;;;;5033358;28;20373;-62
2021/09/22 09:13:56;;;;;;;18.08;14.63;;;15.40;92.80;;;;;;5042973;28;20139;-63
2021/09/22 09:16:23;;;;;;;17.55;13.80;;;15.50;92.40;;;;;;5024196;28;20516;-63
2021/09/22 09:18:55;;;;;;;18.00;11.90;;;15.60;92.10;;;;;;5031156;28;20538;-63
2021/09/22 09:21:24;;;;;;;18.67;14.70;;;15.80;92.00;;;;;;5035041;28;20021;-62
2021/09/22 09:23:52;;;;;;;18.92;14.23;;;15.90;91.50;;;;;;5040998;28;20120;-63
2021/09/22 09:26:22;;;;;;;20.13;14.70;;;16.00;91.30;;;;;;5071379;28;20036;-62
2021/09/22 09:28:50;;;;;;;19.23;14.68;;;16.20;91.00;;;;;;5035259;28;20116;-63
2021/09/22 09:31:16;;;;;;;20.80;13.65;;;16.30;90.30;;;;;;5021406;28;20037;-63
2021/09/22 09:33:54;;;;;;;15.95;12.63;;;16.40;90.20;;;;;;5028022;28;20083;-62
2021/09/22 09:36:29;;;;;;;14.13;9.82;;;16.60;89.90;;;;;;5044331;28;20016;-64
2021/09/22 09:39:03;;;;;;;13.00;10.25;;;16.80;89.50;;;;;;5036916;28;20101;-62
2021/09/22 09:41:33;;;;;;;15.48;10.88;;;17.00;88.20;;;;;;5031711;28;20140;-63
2021/09/22 09:44:00;;;;;;;13.55;9.88;;;17.10;86.50;;;;;;5036099;28;20112;-62
2021/09/22 09:46:27;;;;;;;13.20;9.73;;;17.30;85.70;;;;;;5052534;28;20052;-63
2021/09/22 09:48:58;;;;;;;14.60;11.52;;;17.50;84.80;;;;;;5038226;28;20033;-63
2021/09/22 09:51:43;;;;;;;12.68;9.70;;;17.60;82.90;;;;;;5060136;28;20021;-63
2021/09/22 09:54:18;;;;;;;14.25;9.63;;;17.80;82.60;;;;;;5043814;28;20033;-63
2021/09/22 09:56:44;;;;;;;14.60;9.57;;;17.90;82.00;;;;;;5012200;28;20083;-63
2021/09/22 09:59:10;;;;;;;11.27;8.05;;;18.10;81.80;;;;;;5012147;28;20036;-62
2021/09/22 10:01:59;;;;;;;12.52;9.25;;;18.30;81.40;;;;;;5021135;28;20421;-62
2021/09/22 10:04:25;;;;;;;12.48;9.00;;;18.50;79.90;;;;;;5014830;28;20022;-62
2021/09/22 10:06:52;;;;;;;8.90;7.45;;;18.80;79.50;;;;;;5012921;28;20026;-63
2021/09/22 10:09:18;;;;;;;11.57;8.73;;;19.00;78.90;;;;;;5012814;28;20037;-62
2021/09/22 10:11:46;;;;;;;11.68;7.68;;;19.30;77.20;;;;;;5024129;28;20026;-62
2021/09/22 10:14:14;;;;;;;10.95;8.15;;;19.50;76.40;;;;;;5027877;28;20022;-62
2021/09/22 10:16:40;;;;;;;11.90;7.65;;;19.80;74.70;;;;;;5031185;28;20029;-63
2021/09/22 10:19:06;;;;;;;8.85;6.63;;;20.00;73.70;;;;;;5032681;28;20101;-62
2021/09/22 10:21:34;;;;;;;9.10;5.63;;;20.30;73.50;;;;;;5031326;28;20021;-63
2021/09/22 10:24:02;;;;;;;11.52;7.20;;;20.50;72.20;;;;;;5030755;28;20696;-62
2021/09/22 10:26:28;;;;;;;7.63;6.20;;;20.80;71.30;;;;;;5027924;28;20021;-63
2021/09/22 10:28:59;;;;;;;9.65;6.63;;;21.10;70.50;;;;;;5020137;28;20060;-63
2021/09/22 10:31:30;;;;;;;7.70;5.53;;;21.40;69.50;;;;;;5029030;28;20657;-63
2021/09/22 10:33:57;;;;;;;9.75;6.60;;;21.60;68.20;;;;;;5019629;28;20026;-62
2021/09/22 10:36:34;;;;;;;9.80;7.15;;;21.90;68.10;;;;;;5028903;28;20033;-63
2021/09/22 10:39:00;;;;;;;8.90;6.35;;;22.40;65.30;;;;;;5012193;28;20093;-63
2021/09/22 10:41:30;;;;;;;7.22;5.47;;;22.70;65.60;;;;;;5020270;28;20026;-63
2021/09/22 10:43:55;;;;;;;;;;;23.40;65.60;;;;;;5029092;28;20489;-63
2021/09/22 10:46:22;;;;;;;6.88;4.47;;;24.10;66.10;;;;;;5030907;28;19928;-63
2021/09/22 10:48:50;;;;;;;6.70;5.75;;;26.30;63.00;;;;;;5031725;28;20443;-63
2021/09/22 10:51:28;;;;;;;5.53;4.47;;;28.50;53.60;;;;;;5031925;28;20017;-63
2021/09/22 10:54:10;;;;;;;6.10;4.38;;;30.50;52.00;;;;;;5020028;28;20037;-63
2021/09/22 10:56:57;;;;;;;4.05;3.20;;;32.10;47.90;;;;;;5043516;28;20029;-64
2021/09/22 10:59:39;;;;;;;6.72;4.28;;;33.90;45.90;;;;;;5037980;28;20029;-64
2021/09/22 11:02:11;;;;;;;5.43;4.38;;;35.40;42.50;;;;;;5044832;28;20088;-64
2021/09/22 11:04:54;;;;;;;4.22;3.83;;;36.90;39.50;;;;;;5041114;28;20026;-64
2021/09/22 11:07:21;;;;;;;3.80;3.22;;;38.00;39.00;;;;;;5050923;28;20017;-63
2021/09/22 11:09:47;;;;;;;3.63;3.13;;;38.90;38.00;;;;;;5042465;28;20033;-64
2021/09/22 11:12:14;;;;;;;4.57;3.70;;;39.80;36.80;;;;;;5048408;28;20021;-64
2021/09/22 11:14:56;;;;;;;4.03;3.60;;;40.20;35.70;;;;;;5050755;28;20021;-64
2021/09/22 11:17:29;;;;;;;4.38;3.72;;;40.90;34.80;;;;;;5030136;28;20021;-64
2021/09/22 11:20:00;;;;;;;5.32;4.43;;;41.20;33.40;;;;;;5045339;28;20016;-64
2021/09/22 11:22:31;;;;;;;4.53;3.30;;;41.80;32.70;;;;;;5050649;28;20024;-64
2021/09/22 11:25:04;;;;;;;5.32;3.85;;;42.30;31.40;;;;;;5032995;28;20487;-64
2021/09/22 11:27:31;;;;;;;3.33;2.97;;;43.20;31.40;;;;;;5047092;28;20115;-64
2021/09/22 11:30:01;;;;;;;5.28;4.10;;;44.30;31.40;;;;;;5045787;28;20136;-64
2021/09/22 11:32:32;;;;;;;4.55;4.13;;;44.20;29.00;;;;;;5043221;28;20026;-64
2021/09/22 11:35:05;;;;;;;3.38;3.08;;;43.10;28.50;;;;;;5041116;28;20019;-64
2021/09/22 11:37:41;;;;;;;3.80;2.97;;;43.30;29.90;;;;;;5048082;28;20086;-64
2021/09/22 11:40:23;;;;;;;3.50;2.70;;;44.50;30.00;;;;;;5041616;28;20029;-64
2021/09/22 11:42:54;;;;;;;3.45;3.03;;;45.90;29.90;;;;;;5052759;28;20255;-65
2021/09/22 11:45:22;;;;;;;3.40;3.10;;;46.70;29.40;;;;;;5053674;28;20026;-64
2021/09/22 11:47:47;;;;;;;;;;;47.60;28.90;;;;;;5052587;28;20083;-64
2021/09/22 11:50:35;;;;;;;2.97;2.50;;;48.40;29.10;;;;;;5054863;28;19912;-64
2021/09/22 11:53:01;;;;;;;3.95;3.38;;;49.10;28.60;;;;;;5058144;28;20050;-64
2021/09/22 11:55:27;;;;;;;3.40;3.10;;;49.10;27.70;;;;;;5032529;28;20053;-65
2021/09/22 11:57:52;;;;;;;4.03;3.10;;;48.80;27.30;;;;;;5028032;28;20018;-65
2021/09/22 12:00:21;;;;;;;3.22;3.00;;;48.40;26.70;;;;;;5027234;28;20358;-65
2021/09/22 12:02:47;;;;;;;3.50;2.95;;;48.80;27.40;;;;;;5033938;28;20040;-65
2021/09/22 12:05:18;;;;;;;3.47;3.17;;;48.90;26.70;;;;;;5024260;28;20018;-64
2021/09/22 12:07:45;;;;;;;3.17;2.85;;;49.30;27.10;;;;;;5021556;28;20083;-65
2021/09/22 12:10:11;;;;;;;;;;;50.20;27.10;;;;;;4993024;28;20032;-64
2021/09/22 12:12:38;;;;;;;3.70;3.35;;;50.80;27.00;;;;;;5007032;28;19957;-65
2021/09/22 12:15:06;;;;;;;3.60;3.30;;;51.30;26.70;;;;;;5030869;28;20025;-65
2021/09/22 12:17:39;;;;;;;3.28;3.05;;;51.60;26.70;;;;;;5032993;28;20021;-62
2021/09/22 12:20:08;;;;;;;3.97;3.17;;;51.90;26.60;;;;;;5034316;28;20022;-62
2021/09/22 12:22:37;;;;;;;4.40;4.00;;;52.00;26.30;;;;;;5028624;28;20029;-62
2021/09/22 12:25:09;;;;;;;4.10;3.80;;;51.60;25.50;;;;;;5022829;28;20036;-62
2021/09/22 12:27:35;;;;;;;4.18;3.78;;;51.50;25.80;;;;;;5013686;28;20495;-62
2021/09/22 12:30:10;;;;;;;4.03;3.30;;;51.80;25.90;;;;;;5022104;28;20057;-62
2021/09/22 12:32:54;;;;;;;3.83;3.53;;;51.90;25.80;;;;;;5019419;28;20486;-62
2021/09/22 12:35:21;;;;;;;3.83;3.08;;;51.80;25.70;;;;;;5025175;28;20045;-62
2021/09/22 12:37:59;;;;;;;3.20;3.00;;;51.40;25.30;;;;;;5028663;28;20036;-62
2021/09/22 12:40:33;;;;;;;3.42;3.17;;;51.10;25.60;;;;;;5021201;28;20034;-63
2021/09/22 12:43:01;;;;;;;3.15;2.95;;;50.80;25.40;;;;;;5015623;28;20017;-62